Terminal Aerodrome Forecast
Issued by NWS King Salmon, AK

Home | Current Version | Previous Version | Text Only | Print | Product List | Glossary On
Versions: 1 2 3 4 5 6 7 8 9 10 11 12 13 14 15 16 17 18
000
FTAK31 PANC 142341
TAFAKN
TAF
PAKN 142341Z 1500/1524 VRB06KT P6SM FEW120
     FM150100 VRB04KT 3SM BR FEW002 SCT040
     FM151100 10014G22KT P6SM FEW005 SCT020 BKN080
     FM151300 11018G26KT P6SM -RASN SCT003 SCT010 OVC020
     FM151700 17012G18KT P6SM -RA SCT020 OVC050=

USA.gov is the U.S. government's official web portal to all federal, state and local government web resources and services.